Terminal Aerodrome Forecast
Issued by NWS

Home | Current Version | Previous Version | Text Only | Print | Product List | Glossary On
Versions: 1 2 3 4 5 6 7 8 9 10 11 12 13 14 15 16 17 18 19 20
000
FTUS43 KDLH 031121
TAFHYR
TAF
KHYR 031121Z 0312/0412 VRB04KT P6SM SCT070
     FM031800 31008G14KT P6SM VCSH BKN040
     FM040100 VRB03KT P6SM SCT035 BKN050=

USA.gov is the U.S. government's official web portal to all federal, state and local government web resources and services.